CheckWX is a tool to help pilots better visualize weather data.  It is not intended as a substitute for an official pre-flight weather briefing.

18:13:52 UTC

UNEE TAF
Kemerovo Airport
Kemerovo, Russian Federation
TAF UNEE 171700Z 1718/1818 16003G08MPS 9999 SCT030 TEMPO 1721/1804 3100 BR BKN011 FM180500 18005G10MPS 5000 -SHSN BKN020CB TEMPO 1806/1815 1000 SHSN SCT005 BKN011CB

Feb-17@
18:00 UTC

Feb-17 @ 18:00 UTC

Feb-18@
05:00 UTC

Feb-18 @ 05:00 UTC

TAF UNEE 171700Z 1718/1818 16003G08MPS 9999 SCT030
Wind
  • 160° at 6 KTS
  • {Gusting to 16 KTS
Visibility
10,000+ meters
Cloud Levels
  • Scattered at 3,000' AGL

Feb-17@
21:00 UTC

Feb-17 @ 21:00 UTC

Feb-18@
04:00 UTC

Feb-18 @ 04:00 UTC

TEMPO 1721/1804 3100 BR BKN011

Temporary

TemporaryChanges expected for less than half the time period

Visibility
3,106 meters
Conditions
Mist
Cloud Levels
  • Broken at 1,100' AGL

Feb-18@
05:00 UTC

Feb-18 @ 05:00 UTC

Feb-18@
18:00 UTC

Feb-18 @ 18:00 UTC

FM180500 18005G10MPS 5000 -SHSN BKN020CB

From

FromStandard forecast or significant change

Wind
  • 180° at 10 KTS
  • {Gusting to 19 KTS
Visibility
5,005 meters
Conditions
Light Snow
Cloud Levels
  • Broken at 2,000' AGL

Feb-18@
06:00 UTC

Feb-18 @ 06:00 UTC

Feb-18@
15:00 UTC

Feb-18 @ 15:00 UTC

TEMPO 1806/1815 1000 SHSN SCT005 BKN011CB

Temporary

TemporaryChanges expected for less than half the time period

Visibility
998 meters
Conditions
Snow
Cloud Levels
  • Scattered at 500' AGL
  • Broken at 1,100' AGL